createdAt,value
2018-12-24T00:01:55.573Z,2.30
2018-12-24T00:04:24.109Z,2.40
2018-12-24T00:06:52.658Z,2.50
2018-12-24T00:09:21.282Z,2.50
2018-12-24T00:11:49.818Z,2.40
2018-12-24T00:14:18.370Z,2.40
2018-12-24T00:16:46.905Z,2.40
2018-12-24T00:19:15.460Z,2.30
2018-12-24T00:21:43.993Z,2.20
2018-12-24T00:24:12.541Z,2.20
2018-12-24T00:26:41.081Z,2.20
2018-12-24T00:29:09.634Z,2.20
2018-12-24T00:31:38.187Z,2.20
2018-12-24T00:34:06.726Z,2.20
2018-12-24T00:36:35.297Z,2.20
2018-12-24T00:39:05.025Z,2.10
2018-12-24T00:41:33.622Z,2.00
2018-12-24T00:44:02.177Z,1.90
2018-12-24T00:46:30.718Z,1.80
2018-12-24T00:48:59.447Z,1.80
2018-12-24T00:51:27.994Z,1.70
2018-12-24T00:53:56.552Z,1.80
2018-12-24T00:56:25.086Z,1.80
2018-12-24T00:58:53.642Z,1.80
2018-12-24T01:01:22.250Z,1.90
2018-12-24T01:03:50.797Z,1.90
2018-12-24T01:06:19.447Z,1.70
2018-12-24T01:08:48.034Z,1.60
2018-12-24T01:11:16.591Z,1.60
2018-12-24T01:13:45.130Z,1.50
2018-12-24T01:16:13.670Z,1.50
2018-12-24T01:18:42.225Z,1.30
2018-12-24T01:21:10.766Z,1.40
2018-12-24T01:23:39.326Z,1.40
2018-12-24T01:26:07.890Z,1.30
2018-12-24T01:28:36.444Z,1.40
2018-12-24T01:31:04.994Z,1.50
2018-12-24T01:33:33.593Z,1.80
2018-12-24T01:36:02.146Z,2.00
2018-12-24T01:38:39.197Z,2.10
2018-12-24T01:41:07.823Z,2.20
2018-12-24T01:43:36.362Z,2.20
2018-12-24T01:46:04.914Z,2.10
2018-12-24T01:48:33.530Z,2.00
2018-12-24T01:51:02.077Z,1.80
2018-12-24T01:53:30.630Z,1.60
2018-12-24T01:55:59.170Z,1.60
2018-12-24T01:58:27.722Z,1.60
2018-12-24T02:00:56.257Z,1.50
2018-12-24T02:03:24.816Z,1.30
2018-12-24T02:05:53.350Z,1.30
2018-12-24T02:08:21.893Z,1.50
2018-12-24T02:10:50.446Z,1.50
2018-12-24T02:13:18.986Z,1.50
2018-12-24T02:15:47.542Z,1.80
2018-12-24T02:18:16.087Z,2.00
2018-12-24T02:20:44.698Z,2.00
2018-12-24T02:23:13.253Z,2.10
2018-12-24T02:25:41.800Z,1.90
2018-12-24T02:28:10.424Z,1.70
2018-12-24T02:30:38.984Z,1.60
2018-12-24T02:33:07.601Z,1.40
2018-12-24T02:35:36.225Z,1.40
2018-12-24T02:38:04.762Z,1.30
2018-12-24T02:40:33.385Z,1.30
2018-12-24T02:43:02.095Z,1.30
2018-12-24T02:45:30.734Z,1.30
2018-12-24T02:47:59.274Z,1.30
2018-12-24T02:50:27.811Z,1.30
2018-12-24T02:52:56.446Z,1.50
2018-12-24T02:55:24.986Z,1.50
2018-12-24T02:57:53.541Z,1.60
2018-12-24T03:00:22.075Z,1.60
2018-12-24T03:02:50.707Z,1.60
2018-12-24T03:05:19.262Z,1.50
2018-12-24T03:07:47.800Z,1.50
2018-12-24T03:10:16.346Z,1.60
2018-12-24T03:12:44.886Z,1.70
2018-12-24T03:15:13.441Z,1.90
2018-12-24T03:17:41.994Z,1.90
2018-12-24T03:20:10.533Z,2.00
2018-12-24T03:22:39.091Z,2.00
2018-12-24T03:25:07.630Z,2.00
2018-12-24T03:27:36.270Z,1.90
2018-12-24T03:30:05.019Z,1.80
2018-12-24T03:32:33.657Z,1.80
2018-12-24T03:35:02.214Z,1.80
2018-12-24T03:37:30.842Z,1.70
2018-12-24T03:39:59.393Z,1.70
2018-12-24T03:42:27.937Z,1.70
2018-12-24T03:44:56.486Z,1.70
2018-12-24T03:47:25.026Z,1.70
2018-12-24T03:49:53.574Z,1.80
2018-12-24T03:52:22.135Z,1.70
2018-12-24T03:54:50.742Z,1.70
2018-12-24T03:57:19.298Z,1.70
2018-12-24T03:59:47.841Z,1.70
2018-12-24T04:02:16.393Z,1.60
2018-12-24T04:04:45.038Z,1.80
2018-12-24T04:07:13.585Z,1.80
2018-12-24T04:09:42.142Z,1.60
2018-12-24T04:12:11.002Z,1.60
2018-12-24T04:14:39.543Z,1.50
2018-12-24T04:17:08.078Z,1.50
2018-12-24T04:19:36.632Z,1.40
2018-12-24T04:22:05.188Z,1.50
2018-12-24T04:24:33.738Z,1.60
2018-12-24T04:27:02.273Z,1.70
2018-12-24T04:29:30.834Z,1.70
2018-12-24T04:31:59.394Z,1.70
2018-12-24T04:34:27.933Z,1.60
2018-12-24T04:36:56.481Z,1.50
2018-12-24T04:39:25.032Z,1.50
2018-12-24T04:41:53.659Z,1.50
2018-12-24T04:44:22.194Z,1.50
2018-12-24T04:46:50.750Z,1.70
2018-12-24T04:49:19.282Z,1.80
2018-12-24T04:51:47.841Z,2.00
2018-12-24T04:54:16.461Z,2.30
2018-12-24T04:56:45.081Z,2.30
2018-12-24T04:59:13.635Z,2.30
2018-12-24T05:01:42.189Z,2.10
2018-12-24T05:04:10.731Z,1.90
2018-12-24T05:06:39.288Z,1.90
2018-12-24T05:09:07.894Z,1.80
2018-12-24T05:11:36.434Z,1.90
2018-12-24T05:14:04.985Z,2.00
2018-12-24T05:16:33.534Z,2.00
2018-12-24T05:19:02.093Z,2.10
2018-12-24T05:21:30.642Z,2.20
2018-12-24T05:23:59.178Z,2.30
2018-12-24T05:26:27.730Z,2.30
2018-12-24T05:28:56.270Z,2.40
2018-12-24T05:31:24.824Z,2.60
2018-12-24T05:33:53.371Z,4.20
2018-12-24T05:36:21.932Z,7.40
2018-12-24T05:38:50.559Z,8.50
2018-12-24T05:41:19.234Z,8.90
2018-12-24T05:43:49.478Z,9.00
2018-12-24T05:46:18.099Z,8.90
2018-12-24T05:48:46.638Z,8.80
2018-12-24T05:51:15.194Z,8.50
2018-12-24T05:53:43.730Z,8.40
2018-12-24T05:56:12.286Z,8.10
2018-12-24T05:58:40.835Z,8.10
2018-12-24T06:01:09.382Z,8.00
2018-12-24T06:03:37.917Z,7.80
2018-12-24T06:06:06.451Z,7.80
2018-12-24T06:08:35.006Z,7.60
2018-12-24T06:11:03.562Z,7.50
2018-12-24T06:13:32.110Z,7.50
2018-12-24T06:16:00.658Z,7.40
2018-12-24T06:18:29.201Z,7.60
2018-12-24T06:20:57.753Z,7.60
2018-12-24T06:23:26.297Z,7.80
2018-12-24T06:25:55.778Z,7.80
2018-12-24T06:28:24.582Z,8.10
2018-12-24T06:30:53.134Z,8.10
2018-12-24T06:33:21.675Z,8.20
2018-12-24T06:35:50.298Z,8.10
2018-12-24T06:38:18.840Z,8.10
2018-12-24T06:40:47.370Z,8.00
2018-12-24T06:43:15.923Z,8.30
2018-12-24T06:45:44.479Z,8.40
2018-12-24T06:48:13.030Z,8.50
2018-12-24T06:50:41.566Z,8.50
2018-12-24T06:53:10.126Z,8.50
2018-12-24T06:55:38.934Z,8.40
2018-12-24T06:58:07.462Z,8.60
2018-12-24T07:00:36.097Z,8.60
2018-12-24T07:03:04.629Z,8.70
2018-12-24T07:05:33.182Z,8.70
2018-12-24T07:08:01.726Z,8.90
2018-12-24T07:10:30.287Z,9.10
2018-12-24T07:12:58.827Z,9.10
2018-12-24T07:15:27.438Z,9.30
2018-12-24T07:17:55.994Z,9.20
2018-12-24T07:20:24.542Z,9.30
2018-12-24T07:22:53.094Z,9.20
2018-12-24T07:25:21.629Z,9.40
2018-12-24T07:27:50.193Z,9.40
2018-12-24T07:30:18.745Z,9.30
2018-12-24T07:32:47.302Z,9.50
2018-12-24T07:35:15.858Z,9.40
2018-12-24T07:37:44.397Z,9.30
2018-12-24T07:40:13.250Z,9.30
2018-12-24T07:42:41.822Z,9.30
2018-12-24T07:45:10.431Z,9.20
2018-12-24T07:47:38.982Z,9.10
2018-12-24T07:50:07.518Z,9.00
2018-12-24T07:52:36.071Z,8.90
2018-12-24T07:55:04.673Z,8.80
2018-12-24T07:57:33.221Z,8.80
2018-12-24T08:00:01.771Z,8.70
2018-12-24T08:02:30.430Z,8.70
2018-12-24T08:04:59.018Z,8.70
2018-12-24T08:07:27.566Z,8.60
2018-12-24T08:09:56.118Z,8.60
2018-12-24T08:12:24.659Z,8.50
2018-12-24T08:14:53.214Z,8.40
2018-12-24T08:17:21.754Z,8.50
2018-12-24T08:19:50.295Z,8.60
2018-12-24T08:22:18.845Z,8.60
2018-12-24T08:24:47.387Z,8.50
2018-12-24T08:27:15.938Z,8.50
2018-12-24T08:29:44.489Z,8.40
2018-12-24T08:32:13.042Z,8.30
2018-12-24T08:34:41.583Z,8.10
2018-12-24T08:37:10.142Z,8.20
2018-12-24T08:39:38.686Z,8.10
2018-12-24T08:42:07.233Z,8.00
2018-12-24T08:44:41.681Z,8.00
2018-12-24T08:47:06.141Z,8.00
2018-12-24T08:49:34.750Z,7.90
2018-12-24T08:52:03.306Z,7.90
2018-12-24T08:54:31.852Z,7.90
2018-12-24T08:57:00.389Z,7.90
2018-12-24T08:59:28.946Z,7.90
2018-12-24T09:01:58.127Z,7.90
2018-12-24T09:04:26.846Z,7.90
2018-12-24T09:06:55.394Z,7.90
2018-12-24T09:09:23.950Z,7.90
2018-12-24T09:11:52.562Z,7.90
2018-12-24T09:14:21.113Z,7.80
2018-12-24T09:16:49.650Z,7.80
2018-12-24T09:19:18.207Z,7.70
2018-12-24T09:21:46.765Z,7.70
2018-12-24T09:24:15.344Z,7.70
2018-12-24T09:26:43.938Z,7.60
2018-12-24T09:29:12.491Z,7.50
2018-12-24T09:31:41.026Z,7.50
2018-12-24T09:34:09.586Z,7.50
2018-12-24T09:36:38.141Z,7.40
2018-12-24T09:39:07.051Z,7.30
2018-12-24T09:41:35.658Z,7.30
2018-12-24T09:44:04.210Z,7.20
2018-12-24T09:46:32.746Z,7.20
2018-12-24T09:49:01.386Z,7.30
2018-12-24T09:51:29.942Z,7.40
2018-12-24T09:53:58.553Z,7.30
2018-12-24T09:56:27.102Z,7.40
2018-12-24T09:58:55.649Z,7.50
2018-12-24T10:01:24.212Z,7.50
2018-12-24T10:03:52.893Z,7.40
2018-12-24T10:06:21.519Z,7.30
2018-12-24T10:08:50.062Z,7.40
2018-12-24T10:11:18.603Z,7.50
2018-12-24T10:13:47.154Z,7.70
2018-12-24T10:16:15.698Z,7.80
2018-12-24T10:18:44.255Z,7.90
2018-12-24T10:21:12.794Z,8.00
2018-12-24T10:23:41.333Z,8.10
2018-12-24T10:26:09.885Z,8.20
2018-12-24T10:28:38.430Z,8.10
2018-12-24T10:31:06.973Z,8.10
2018-12-24T10:33:35.509Z,8.10
2018-12-24T10:36:04.065Z,8.20
2018-12-24T10:38:32.610Z,8.20
2018-12-24T10:41:01.152Z,8.20
2018-12-24T10:43:29.702Z,8.20
2018-12-24T10:45:58.254Z,8.20
2018-12-24T10:48:26.807Z,8.10
2018-12-24T10:50:55.339Z,8.20
2018-12-24T10:53:23.893Z,8.20
2018-12-24T10:55:52.429Z,8.20
2018-12-24T10:58:20.987Z,8.30
2018-12-24T11:00:49.522Z,8.30
2018-12-24T11:03:18.073Z,8.30
2018-12-24T11:05:46.614Z,8.30
2018-12-24T11:08:15.167Z,8.30
2018-12-24T11:10:43.721Z,8.30
2018-12-24T11:13:12.261Z,8.30
2018-12-24T11:15:40.814Z,8.40
2018-12-24T11:18:09.436Z,8.30
2018-12-24T11:20:37.990Z,8.40
2018-12-24T11:23:06.539Z,8.40
2018-12-24T11:25:35.149Z,8.40
2018-12-24T11:28:03.811Z,8.40
2018-12-24T11:30:32.501Z,8.40
2018-12-24T11:33:01.924Z,8.30
2018-12-24T11:35:30.722Z,8.30
2018-12-24T11:37:59.279Z,8.30
2018-12-24T11:40:28.016Z,8.30
2018-12-24T11:42:56.740Z,8.20
2018-12-24T11:45:33.619Z,8.30
2018-12-24T11:47:55.967Z,8.20
2018-12-24T11:50:24.594Z,8.20
2018-12-24T11:52:53.213Z,8.00
2018-12-24T11:55:21.872Z,8.00
2018-12-24T11:57:50.444Z,7.90
2018-12-24T12:00:19.126Z,7.90
2018-12-24T12:02:47.692Z,7.90
2018-12-24T12:05:16.243Z,7.90
2018-12-24T12:07:44.862Z,7.80
2018-12-24T12:10:13.466Z,7.80
2018-12-24T12:12:42.085Z,7.90
2018-12-24T12:15:10.707Z,7.90
2018-12-24T12:17:39.257Z,7.80
2018-12-24T12:20:08.744Z,7.60
2018-12-24T12:22:37.474Z,7.50
2018-12-24T12:25:06.354Z,7.50
2018-12-24T12:27:34.906Z,7.50
2018-12-24T12:30:04.218Z,7.50
2018-12-24T12:32:33.275Z,7.60
2018-12-24T12:35:04.526Z,7.60
2018-12-24T12:37:33.085Z,7.60
2018-12-24T12:40:01.694Z,7.70
2018-12-24T12:42:30.310Z,7.70
2018-12-24T12:44:58.911Z,7.70
2018-12-24T12:47:27.907Z,7.80
2018-12-24T12:49:56.538Z,7.90
2018-12-24T12:52:25.074Z,7.90
2018-12-24T12:54:53.631Z,8.00
2018-12-24T12:57:22.167Z,8.00
2018-12-24T12:59:50.706Z,8.00
2018-12-24T13:02:19.259Z,8.00
2018-12-24T13:04:47.797Z,8.00
2018-12-24T13:07:16.334Z,7.90
2018-12-24T13:09:44.889Z,7.90
2018-12-24T13:12:13.429Z,7.90
2018-12-24T13:14:41.981Z,8.10
2018-12-24T13:17:10.924Z,8.10
2018-12-24T13:19:39.774Z,8.20
2018-12-24T13:22:08.834Z,8.30
2018-12-24T13:24:37.410Z,8.30
2018-12-24T13:27:06.952Z,8.20
2018-12-24T13:29:36.843Z,8.10
2018-12-24T13:32:05.401Z,8.10
2018-12-24T13:34:34.468Z,8.00
2018-12-24T13:37:03.055Z,7.90
2018-12-24T13:39:31.612Z,7.80
2018-12-24T13:42:00.146Z,7.80
2018-12-24T13:44:28.701Z,7.70
2018-12-24T13:47:16.602Z,7.70
2018-12-24T13:49:45.234Z,7.60
2018-12-24T13:52:13.778Z,7.50
2018-12-24T13:55:23.362Z,7.50
2018-12-24T13:57:51.932Z,7.60
2018-12-24T14:00:20.367Z,7.50
2018-12-24T14:02:48.818Z,7.50
2018-12-24T14:05:17.255Z,7.40
2018-12-24T14:07:45.708Z,7.40
2018-12-24T14:10:14.143Z,7.40
2018-12-24T14:12:42.594Z,7.30
2018-12-24T14:15:11.098Z,7.30
2018-12-24T14:17:39.545Z,7.30
2018-12-24T14:20:08.081Z,7.30
2018-12-24T14:22:36.532Z,7.20
2018-12-24T14:25:05.641Z,7.10
2018-12-24T14:27:34.078Z,7.00
2018-12-24T14:30:02.537Z,7.00
2018-12-24T14:32:31.013Z,7.00
2018-12-24T14:34:59.449Z,7.10
2018-12-24T14:37:27.890Z,7.10
2018-12-24T14:39:56.339Z,7.10
2018-12-24T14:42:24.769Z,7.10
2018-12-24T14:44:53.218Z,7.10
2018-12-24T14:47:21.658Z,7.00
2018-12-24T14:49:50.101Z,6.90
2018-12-24T14:52:18.537Z,6.90
2018-12-24T14:54:46.991Z,6.80
2018-12-24T14:57:15.437Z,6.70
2018-12-24T14:59:43.924Z,6.70
2018-12-24T15:02:12.407Z,6.70
2018-12-24T15:04:40.845Z,6.60
2018-12-24T15:07:09.297Z,6.50
2018-12-24T15:09:37.749Z,6.50
2018-12-24T15:12:06.202Z,6.50
2018-12-24T15:14:34.649Z,6.40
2018-12-24T15:17:03.087Z,6.30
2018-12-24T15:19:31.537Z,6.20
2018-12-24T15:21:59.989Z,6.10
2018-12-24T15:24:28.422Z,6.00
2018-12-24T15:26:56.869Z,6.00
2018-12-24T15:29:25.301Z,5.90
2018-12-24T15:31:53.753Z,5.90
2018-12-24T15:34:22.185Z,6.00
2018-12-24T15:36:50.633Z,6.00
2018-12-24T15:39:19.062Z,6.10
2018-12-24T15:41:47.513Z,6.10
2018-12-24T15:44:15.965Z,6.00
2018-12-24T15:46:44.410Z,6.00
2018-12-24T15:49:12.858Z,6.00
2018-12-24T15:51:41.289Z,5.90
2018-12-24T15:54:09.746Z,6.00
2018-12-24T15:56:38.177Z,5.90
2018-12-24T15:59:06.625Z,5.90
2018-12-24T16:01:35.086Z,5.80
2018-12-24T16:04:03.689Z,5.80
2018-12-24T16:06:32.142Z,5.70
2018-12-24T16:09:00.573Z,5.80
2018-12-24T16:11:29.029Z,5.80
2018-12-24T16:13:59.107Z,6.00
2018-12-24T16:16:27.545Z,5.90
2018-12-24T16:18:55.993Z,5.80
2018-12-24T16:21:24.430Z,5.80
2018-12-24T16:23:52.877Z,5.70
2018-12-24T16:26:21.315Z,5.60
2018-12-24T16:28:49.768Z,5.50
2018-12-24T16:31:18.211Z,5.70
2018-12-24T16:33:46.641Z,5.70
2018-12-24T16:36:15.088Z,5.60
2018-12-24T16:38:43.529Z,5.40
2018-12-24T16:41:11.981Z,5.50
2018-12-24T16:43:40.417Z,5.50
2018-12-24T16:46:08.869Z,5.60
2018-12-24T16:48:37.309Z,5.50
2018-12-24T16:51:05.751Z,5.50
2018-12-24T16:53:40.493Z,5.50
2018-12-24T16:56:04.448Z,5.40
2018-12-24T16:58:32.887Z,5.30
2018-12-24T17:01:01.409Z,5.20
2018-12-24T17:03:29.842Z,5.10
2018-12-24T17:05:58.290Z,5.30
2018-12-24T17:08:26.729Z,5.40
2018-12-24T17:10:55.536Z,5.20
2018-12-24T17:13:24.009Z,5.20
2018-12-24T17:15:52.437Z,5.30
2018-12-24T17:18:20.885Z,5.20
2018-12-24T17:20:49.340Z,5.00
2018-12-24T17:23:17.785Z,4.80
2018-12-24T17:25:46.217Z,4.80
2018-12-24T17:28:14.665Z,4.70
2018-12-24T17:30:43.101Z,4.90
2018-12-24T17:33:11.549Z,4.90
2018-12-24T17:35:39.987Z,4.90
2018-12-24T17:38:08.438Z,4.90
2018-12-24T17:40:36.882Z,5.00
2018-12-24T17:43:05.321Z,4.90
2018-12-24T17:45:33.774Z,4.90
2018-12-24T17:48:02.220Z,4.90
2018-12-24T17:50:30.648Z,4.90
2018-12-24T17:52:59.101Z,4.80
2018-12-24T17:55:27.537Z,4.70
2018-12-24T17:57:55.973Z,4.60
2018-12-24T18:00:24.430Z,4.50
2018-12-24T18:02:52.865Z,4.40
2018-12-24T18:05:21.301Z,4.40
2018-12-24T18:07:49.751Z,4.40
2018-12-24T18:10:18.186Z,4.30
2018-12-24T18:12:46.642Z,4.30
2018-12-24T18:15:15.081Z,4.30
2018-12-24T18:17:43.525Z,4.50
2018-12-24T18:20:11.970Z,4.50
2018-12-24T18:22:40.422Z,4.50
2018-12-24T18:25:08.869Z,4.50
2018-12-24T18:27:37.316Z,4.50
2018-12-24T18:30:07.291Z,4.50
2018-12-24T18:32:35.733Z,4.60
2018-12-24T18:35:05.341Z,4.50
2018-12-24T18:37:33.797Z,4.50
2018-12-24T18:40:02.423Z,4.50
2018-12-24T18:42:30.901Z,4.50
2018-12-24T18:44:59.345Z,4.50
2018-12-24T18:47:33.066Z,4.40
2018-12-24T18:49:57.969Z,4.30
2018-12-24T18:52:26.401Z,4.20
2018-12-24T18:54:54.845Z,4.10
2018-12-24T18:57:23.285Z,4.00
2018-12-24T18:59:51.747Z,3.90
2018-12-24T19:02:20.173Z,3.80
2018-12-24T19:04:48.766Z,3.70
2018-12-24T19:07:17.222Z,3.70
2018-12-24T19:09:45.673Z,3.60
2018-12-24T19:12:14.106Z,3.50
2018-12-24T19:14:42.642Z,3.40
2018-12-24T19:17:11.079Z,3.40
2018-12-24T19:19:39.603Z,3.50
2018-12-24T19:22:08.045Z,3.50
2018-12-24T19:24:37.653Z,3.60
2018-12-24T19:27:06.285Z,3.60
2018-12-24T19:29:34.858Z,3.70
2018-12-24T19:32:03.291Z,3.70
2018-12-24T19:34:31.728Z,3.80
2018-12-24T19:37:00.236Z,3.80
2018-12-24T19:39:28.674Z,3.80
2018-12-24T19:41:57.122Z,3.80
2018-12-24T19:44:25.552Z,3.70
2018-12-24T19:46:54.073Z,3.70
2018-12-24T19:49:22.513Z,3.60
2018-12-24T19:51:50.969Z,3.60
2018-12-24T19:54:19.417Z,3.40
2018-12-24T19:56:47.860Z,3.30
2018-12-24T19:59:16.302Z,3.30
2018-12-24T20:01:44.750Z,3.20
2018-12-24T20:04:13.198Z,3.20
2018-12-24T20:06:41.633Z,3.10
2018-12-24T20:09:10.066Z,3.10
2018-12-24T20:11:38.586Z,3.20
2018-12-24T20:14:07.022Z,3.20
2018-12-24T20:16:35.466Z,3.10
2018-12-24T20:19:03.917Z,3.10
2018-12-24T20:21:32.361Z,3.10
2018-12-24T20:24:00.814Z,3.10
2018-12-24T20:26:29.261Z,3.00
2018-12-24T20:28:57.697Z,3.00
2018-12-24T20:31:26.150Z,3.00
2018-12-24T20:33:54.610Z,3.10
2018-12-24T20:36:23.059Z,3.10
2018-12-24T20:38:51.491Z,3.10
2018-12-24T20:41:19.942Z,3.10
2018-12-24T20:43:48.378Z,3.10
2018-12-24T20:46:16.829Z,3.00
2018-12-24T20:48:45.285Z,3.00
2018-12-24T20:51:16.236Z,2.90
2018-12-24T20:53:43.886Z,2.90
2018-12-24T20:56:12.322Z,2.80
2018-12-24T20:58:40.769Z,2.70
2018-12-24T21:01:09.217Z,2.60
2018-12-24T21:03:37.662Z,2.50
2018-12-24T21:06:06.109Z,2.40
2018-12-24T21:08:34.549Z,2.40
2018-12-24T21:11:03.070Z,2.40
2018-12-24T21:13:31.514Z,2.40
2018-12-24T21:15:59.952Z,2.40
2018-12-24T21:18:28.405Z,2.40
2018-12-24T21:20:56.855Z,2.40
2018-12-24T21:23:25.372Z,2.40
2018-12-24T21:25:53.817Z,2.40
2018-12-24T21:28:22.260Z,2.30
2018-12-24T21:30:50.773Z,2.20
2018-12-24T21:33:19.214Z,2.20
2018-12-24T21:35:47.666Z,2.20
2018-12-24T21:38:16.109Z,2.20
2018-12-24T21:40:44.542Z,2.10
2018-12-24T21:43:12.990Z,2.10
2018-12-24T21:45:41.429Z,2.20
2018-12-24T21:48:09.878Z,2.30
2018-12-24T21:50:38.322Z,2.30
2018-12-24T21:53:06.770Z,2.30
2018-12-24T21:55:35.212Z,2.30
2018-12-24T21:58:03.666Z,2.30
2018-12-24T22:00:32.179Z,2.30
2018-12-24T22:03:00.630Z,2.30
2018-12-24T22:05:29.153Z,2.30
2018-12-24T22:07:57.590Z,2.30
2018-12-24T22:10:26.054Z,2.20
2018-12-24T22:12:54.506Z,2.10
2018-12-24T22:15:22.957Z,2.00
2018-12-24T22:17:51.424Z,2.00
2018-12-24T22:20:19.861Z,2.00
2018-12-24T22:22:48.324Z,1.90
2018-12-24T22:25:16.754Z,1.90
2018-12-24T22:27:45.198Z,1.80
2018-12-24T22:30:13.637Z,1.90
2018-12-24T22:32:42.197Z,1.90
2018-12-24T22:35:10.625Z,1.90
2018-12-24T22:37:39.332Z,2.00
2018-12-24T22:40:07.809Z,2.00
2018-12-24T22:42:36.249Z,2.00
2018-12-24T22:45:04.933Z,2.00
2018-12-24T22:47:33.370Z,2.00
2018-12-24T22:50:01.824Z,2.00
2018-12-24T22:52:30.361Z,1.90
2018-12-24T22:54:58.813Z,1.80
2018-12-24T22:57:27.261Z,1.80
2018-12-24T22:59:55.701Z,1.80
2018-12-24T23:02:24.146Z,1.80
2018-12-24T23:04:52.589Z,1.90
2018-12-24T23:07:21.057Z,2.00
2018-12-24T23:09:49.507Z,2.00
2018-12-24T23:12:17.945Z,2.00
2018-12-24T23:14:46.395Z,2.00
2018-12-24T23:17:14.837Z,1.90
2018-12-24T23:19:43.298Z,1.80
2018-12-24T23:22:11.741Z,1.70
2018-12-24T23:24:40.314Z,1.60
2018-12-24T23:27:08.760Z,1.50
2018-12-24T23:29:37.266Z,1.40
2018-12-24T23:32:05.706Z,1.30
2018-12-24T23:34:34.155Z,1.40
2018-12-24T23:37:02.606Z,1.30
2018-12-24T23:39:31.046Z,1.30
2018-12-24T23:41:59.499Z,1.30
2018-12-24T23:44:27.958Z,1.20
2018-12-24T23:46:56.407Z,1.10
2018-12-24T23:49:24.862Z,1.00
2018-12-24T23:51:53.295Z,1.00
2018-12-24T23:54:21.734Z,1.00
2018-12-24T23:56:50.180Z,0.90
2018-12-24T23:59:18.613Z,0.80
